sensor_id;sensor_type;location;lat;lon;timestamp;pressure;altitude;pressure_sealevel;temperature;humidity
21359;BME280;13506;50.852;20.632;2023-03-14T00:00:17;96912.91;;;5.75;71.26
21359;BME280;13506;50.852;20.632;2023-03-14T00:03:06;96915.72;;;5.72;71.47
21359;BME280;13506;50.852;20.632;2023-03-14T00:05:35;96903.44;;;5.74;70.22
21359;BME280;13506;50.852;20.632;2023-03-14T00:08:02;96905.22;;;5.85;70.10
21359;BME280;13506;50.852;20.632;2023-03-14T00:10:31;96897.69;;;5.82;70.18
21359;BME280;13506;50.852;20.632;2023-03-14T00:12:58;96890.97;;;5.79;70.02
21359;BME280;13506;50.852;20.632;2023-03-14T00:15:26;96889.75;;;5.72;71.01
21359;BME280;13506;50.852;20.632;2023-03-14T00:17:54;96880.09;;;5.74;71.21
21359;BME280;13506;50.852;20.632;2023-03-14T00:20:23;96892.34;;;5.72;70.44
21359;BME280;13506;50.852;20.632;2023-03-14T00:22:51;96872.56;;;5.71;70.20
21359;BME280;13506;50.852;20.632;2023-03-14T00:25:19;96870.28;;;5.55;70.78
21359;BME280;13506;50.852;20.632;2023-03-14T00:27:47;96864.50;;;5.40;71.72
21359;BME280;13506;50.852;20.632;2023-03-14T00:30:18;96869.72;;;5.63;70.66
21359;BME280;13506;50.852;20.632;2023-03-14T00:32:46;96866.84;;;5.32;71.27
21359;BME280;13506;50.852;20.632;2023-03-14T00:35:17;96874.97;;;5.39;72.42
21359;BME280;13506;50.852;20.632;2023-03-14T00:37:47;96865.66;;;5.25;72.83
21359;BME280;13506;50.852;20.632;2023-03-14T00:40:16;96863.06;;;5.25;72.25
21359;BME280;13506;50.852;20.632;2023-03-14T00:42:43;96830.97;;;5.15;73.03
21359;BME280;13506;50.852;20.632;2023-03-14T00:45:11;96835.81;;;5.08;73.41
21359;BME280;13506;50.852;20.632;2023-03-14T00:47:39;96823.66;;;4.97;73.52
21359;BME280;13506;50.852;20.632;2023-03-14T00:50:09;96830.38;;;5.00;73.11
21359;BME280;13506;50.852;20.632;2023-03-14T00:52:38;96820.88;;;4.88;74.45
21359;BME280;13506;50.852;20.632;2023-03-14T00:55:08;96830.72;;;4.95;73.69
21359;BME280;13506;50.852;20.632;2023-03-14T00:57:37;96832.13;;;4.99;74.65
21359;BME280;13506;50.852;20.632;2023-03-14T01:00:06;96832.34;;;4.96;73.65
21359;BME280;13506;50.852;20.632;2023-03-14T01:02:37;96823.75;;;4.96;74.04
21359;BME280;13506;50.852;20.632;2023-03-14T01:05:05;96809.88;;;4.97;73.72
21359;BME280;13506;50.852;20.632;2023-03-14T01:07:33;96798.50;;;4.86;74.98
21359;BME280;13506;50.852;20.632;2023-03-14T01:10:02;96800.94;;;4.77;74.97
21359;BME280;13506;50.852;20.632;2023-03-14T01:12:31;96790.03;;;4.84;75.22
21359;BME280;13506;50.852;20.632;2023-03-14T01:14:59;96788.13;;;4.86;73.95
21359;BME280;13506;50.852;20.632;2023-03-14T01:17:27;96780.72;;;4.82;73.94
21359;BME280;13506;50.852;20.632;2023-03-14T01:19:57;96782.91;;;4.75;75.23
21359;BME280;13506;50.852;20.632;2023-03-14T01:22:25;96758.31;;;4.81;75.38
21359;BME280;13506;50.852;20.632;2023-03-14T01:24:53;96762.88;;;4.66;74.63
21359;BME280;13506;50.852;20.632;2023-03-14T01:27:21;96746.19;;;4.81;75.13
21359;BME280;13506;50.852;20.632;2023-03-14T01:29:51;96744.41;;;4.71;75.42
21359;BME280;13506;50.852;20.632;2023-03-14T01:32:19;96738.06;;;4.75;74.90
21359;BME280;13506;50.852;20.632;2023-03-14T01:34:47;96737.78;;;4.66;74.67
21359;BME280;13506;50.852;20.632;2023-03-14T01:37:15;96727.09;;;4.71;74.75
21359;BME280;13506;50.852;20.632;2023-03-14T01:39:44;96754.28;;;4.65;75.08
21359;BME280;13506;50.852;20.632;2023-03-14T01:42:13;96740.44;;;4.78;74.64
21359;BME280;13506;50.852;20.632;2023-03-14T01:44:52;96728.84;;;4.71;74.85
21359;BME280;13506;50.852;20.632;2023-03-14T01:47:21;96719.09;;;4.74;74.70
21359;BME280;13506;50.852;20.632;2023-03-14T01:49:54;96734.50;;;4.64;75.24
21359;BME280;13506;50.852;20.632;2023-03-14T01:52:27;96723.69;;;4.71;74.65
21359;BME280;13506;50.852;20.632;2023-03-14T01:55:03;96735.44;;;4.52;76.20
21359;BME280;13506;50.852;20.632;2023-03-14T01:57:36;96741.06;;;4.46;76.63
21359;BME280;13506;50.852;20.632;2023-03-14T02:00:09;96711.88;;;4.55;75.60
21359;BME280;13506;50.852;20.632;2023-03-14T02:02:45;96704.38;;;4.63;75.16
21359;BME280;13506;50.852;20.632;2023-03-14T02:05:18;96715.19;;;4.57;75.45
21359;BME280;13506;50.852;20.632;2023-03-14T02:07:56;96691.97;;;4.56;76.17
21359;BME280;13506;50.852;20.632;2023-03-14T02:10:31;96694.56;;;4.56;75.78
21359;BME280;13506;50.852;20.632;2023-03-14T02:13:04;96690.81;;;4.49;76.25
21359;BME280;13506;50.852;20.632;2023-03-14T02:15:52;96682.84;;;4.28;77.01
21359;BME280;13506;50.852;20.632;2023-03-14T02:18:39;96695.28;;;4.22;77.79
21359;BME280;13506;50.852;20.632;2023-03-14T02:21:53;96696.94;;;4.12;78.86
21359;BME280;13506;50.852;20.632;2023-03-14T02:24:39;96691.63;;;4.14;78.83
21359;BME280;13506;50.852;20.632;2023-03-14T02:27:16;96689.81;;;4.03;79.21
21359;BME280;13506;50.852;20.632;2023-03-14T02:29:50;96665.78;;;3.90;79.67
21359;BME280;13506;50.852;20.632;2023-03-14T02:32:22;96661.75;;;3.86;81.01
21359;BME280;13506;50.852;20.632;2023-03-14T02:34:54;96634.97;;;3.87;80.48
21359;BME280;13506;50.852;20.632;2023-03-14T02:37:26;96636.06;;;3.71;82.17
21359;BME280;13506;50.852;20.632;2023-03-14T02:39:56;96651.16;;;3.77;81.42
21359;BME280;13506;50.852;20.632;2023-03-14T02:42:27;96655.78;;;3.85;81.26
21359;BME280;13506;50.852;20.632;2023-03-14T02:45:01;96640.69;;;3.79;80.89
21359;BME280;13506;50.852;20.632;2023-03-14T02:47:54;96637.59;;;3.74;81.92
21359;BME280;13506;50.852;20.632;2023-03-14T02:50:30;96634.00;;;3.76;82.25
21359;BME280;13506;50.852;20.632;2023-03-14T02:53:00;96631.41;;;3.76;81.94
21359;BME280;13506;50.852;20.632;2023-03-14T02:55:28;96636.06;;;3.71;82.48
21359;BME280;13506;50.852;20.632;2023-03-14T02:58:01;96649.06;;;3.82;82.13
21359;BME280;13506;50.852;20.632;2023-03-14T03:00:29;96660.78;;;3.75;81.98
21359;BME280;13506;50.852;20.632;2023-03-14T03:02:58;96656.81;;;3.82;82.02
21359;BME280;13506;50.852;20.632;2023-03-14T03:05:27;96655.31;;;3.67;82.48
21359;BME280;13506;50.852;20.632;2023-03-14T03:07:55;96658.41;;;3.72;81.39
21359;BME280;13506;50.852;20.632;2023-03-14T03:10:24;96661.50;;;3.77;81.53
21359;BME280;13506;50.852;20.632;2023-03-14T03:12:52;96651.31;;;3.87;81.30
21359;BME280;13506;50.852;20.632;2023-03-14T03:15:26;96650.16;;;3.91;80.60
21359;BME280;13506;50.852;20.632;2023-03-14T03:17:54;96641.56;;;3.91;80.79
21359;BME280;13506;50.852;20.632;2023-03-14T03:20:22;96641.81;;;3.99;80.61
21359;BME280;13506;50.852;20.632;2023-03-14T03:22:50;96643.63;;;4.10;80.58
21359;BME280;13506;50.852;20.632;2023-03-14T03:25:18;96651.06;;;4.14;80.18
21359;BME280;13506;50.852;20.632;2023-03-14T03:27:46;96643.25;;;4.03;80.21
21359;BME280;13506;50.852;20.632;2023-03-14T03:30:18;96635.13;;;3.96;80.03
21359;BME280;13506;50.852;20.632;2023-03-14T03:32:48;96635.00;;;3.98;81.10
21359;BME280;13506;50.852;20.632;2023-03-14T03:35:17;96646.25;;;3.86;81.72
21359;BME280;13506;50.852;20.632;2023-03-14T03:37:45;96639.44;;;3.84;81.69
21359;BME280;13506;50.852;20.632;2023-03-14T03:40:13;96643.19;;;3.80;82.63
21359;BME280;13506;50.852;20.632;2023-03-14T03:42:41;96650.97;;;3.92;81.41
21359;BME280;13506;50.852;20.632;2023-03-14T03:45:11;96641.06;;;3.86;81.58
21359;BME280;13506;50.852;20.632;2023-03-14T03:47:53;96646.47;;;3.82;82.37
21359;BME280;13506;50.852;20.632;2023-03-14T03:50:23;96645.69;;;3.69;82.36
21359;BME280;13506;50.852;20.632;2023-03-14T03:52:51;96644.19;;;3.78;82.27
21359;BME280;13506;50.852;20.632;2023-03-14T03:55:19;96630.56;;;3.76;82.50
21359;BME280;13506;50.852;20.632;2023-03-14T03:57:48;96622.94;;;3.74;83.10
21359;BME280;13506;50.852;20.632;2023-03-14T04:00:16;96619.50;;;3.74;83.20
21359;BME280;13506;50.852;20.632;2023-03-14T04:02:44;96616.34;;;3.70;83.53
21359;BME280;13506;50.852;20.632;2023-03-14T04:05:17;96617.41;;;3.79;82.18
21359;BME280;13506;50.852;20.632;2023-03-14T04:07:53;96599.44;;;3.53;83.18
21359;BME280;13506;50.852;20.632;2023-03-14T04:10:24;96602.19;;;3.63;83.32
21359;BME280;13506;50.852;20.632;2023-03-14T04:13:16;96611.94;;;3.59;83.49
21359;BME280;13506;50.852;20.632;2023-03-14T04:15:50;96606.53;;;3.62;83.93
21359;BME280;13506;50.852;20.632;2023-03-14T04:18:24;96593.72;;;3.61;83.72
21359;BME280;13506;50.852;20.632;2023-03-14T04:20:55;96591.78;;;3.52;83.96
21359;BME280;13506;50.852;20.632;2023-03-14T04:23:28;96592.94;;;3.48;84.06
21359;BME280;13506;50.852;20.632;2023-03-14T04:25:56;96593.38;;;3.41;84.30
21359;BME280;13506;50.852;20.632;2023-03-14T04:28:26;96588.13;;;3.43;84.82
21359;BME280;13506;50.852;20.632;2023-03-14T04:30:53;96587.13;;;3.33;84.58
21359;BME280;13506;50.852;20.632;2023-03-14T04:33:24;96603.63;;;3.43;84.72
21359;BME280;13506;50.852;20.632;2023-03-14T04:35:55;96615.00;;;3.64;82.79
21359;BME280;13506;50.852;20.632;2023-03-14T04:38:24;96619.34;;;3.64;82.23
21359;BME280;13506;50.852;20.632;2023-03-14T04:40:53;96617.25;;;3.69;81.99
21359;BME280;13506;50.852;20.632;2023-03-14T04:43:25;96615.22;;;3.86;80.64
21359;BME280;13506;50.852;20.632;2023-03-14T04:46:01;96599.41;;;3.77;80.38
21359;BME280;13506;50.852;20.632;2023-03-14T04:48:29;96590.47;;;3.70;81.35
21359;BME280;13506;50.852;20.632;2023-03-14T04:51:00;96592.47;;;3.78;80.28
21359;BME280;13506;50.852;20.632;2023-03-14T04:53:32;96601.28;;;3.75;81.38
21359;BME280;13506;50.852;20.632;2023-03-14T04:56:04;96604.03;;;3.61;81.04
21359;BME280;13506;50.852;20.632;2023-03-14T04:58:44;96592.63;;;3.88;79.55
21359;BME280;13506;50.852;20.632;2023-03-14T05:01:15;96593.09;;;3.81;79.43
21359;BME280;13506;50.852;20.632;2023-03-14T05:03:59;96594.28;;;3.89;78.87
21359;BME280;13506;50.852;20.632;2023-03-14T05:06:47;96570.41;;;3.85;78.54
21359;BME280;13506;50.852;20.632;2023-03-14T05:09:27;96566.31;;;3.82;78.71
21359;BME280;13506;50.852;20.632;2023-03-14T05:12:18;96548.41;;;3.79;78.81
21359;BME280;13506;50.852;20.632;2023-03-14T05:14:55;96552.84;;;3.66;78.62
21359;BME280;13506;50.852;20.632;2023-03-14T05:17:42;96560.19;;;3.83;78.39
21359;BME280;13506;50.852;20.632;2023-03-14T05:20:33;96554.19;;;3.94;77.18
21359;BME280;13506;50.852;20.632;2023-03-14T05:23:29;96545.63;;;3.94;77.58
21359;BME280;13506;50.852;20.632;2023-03-14T05:26:25;96547.31;;;4.06;76.30
21359;BME280;13506;50.852;20.632;2023-03-14T05:29:00;96542.38;;;4.14;75.60
21359;BME280;13506;50.852;20.632;2023-03-14T05:31:34;96539.53;;;4.29;75.13
21359;BME280;13506;50.852;20.632;2023-03-14T05:34:12;96532.72;;;4.39;73.79
21359;BME280;13506;50.852;20.632;2023-03-14T05:36:50;96545.22;;;4.45;72.85
21359;BME280;13506;50.852;20.632;2023-03-14T05:39:39;96543.31;;;4.47;73.14
21359;BME280;13506;50.852;20.632;2023-03-14T05:42:31;96534.16;;;4.43;71.91
21359;BME280;13506;50.852;20.632;2023-03-14T05:45:25;96527.91;;;4.57;71.25
21359;BME280;13506;50.852;20.632;2023-03-14T05:48:12;96525.19;;;4.47;71.48
21359;BME280;13506;50.852;20.632;2023-03-14T05:50:55;96521.44;;;4.51;71.44
21359;BME280;13506;50.852;20.632;2023-03-14T05:53:42;96516.25;;;4.62;70.48
21359;BME280;13506;50.852;20.632;2023-03-14T05:56:29;96506.34;;;4.56;70.92
21359;BME280;13506;50.852;20.632;2023-03-14T05:59:36;96507.56;;;4.52;70.86
21359;BME280;13506;50.852;20.632;2023-03-14T06:02:27;96503.28;;;4.62;70.56
21359;BME280;13506;50.852;20.632;2023-03-14T06:05:04;96505.19;;;4.72;69.79
21359;BME280;13506;50.852;20.632;2023-03-14T06:07:32;96509.03;;;4.77;70.24
21359;BME280;13506;50.852;20.632;2023-03-14T06:10:00;96492.28;;;5.04;68.65
21359;BME280;13506;50.852;20.632;2023-03-14T06:12:30;96495.09;;;5.44;67.77
21359;BME280;13506;50.852;20.632;2023-03-14T06:14:57;96496.38;;;5.71;65.03
21359;BME280;13506;50.852;20.632;2023-03-14T06:17:26;96482.50;;;6.03;64.64
21359;BME280;13506;50.852;20.632;2023-03-14T06:20:02;96491.00;;;6.15;63.32
21359;BME280;13506;50.852;20.632;2023-03-14T06:22:31;96483.75;;;6.39;62.93
21359;BME280;13506;50.852;20.632;2023-03-14T06:24:59;96493.75;;;6.13;62.83
21359;BME280;13506;50.852;20.632;2023-03-14T06:27:29;96477.50;;;6.52;62.24
21359;BME280;13506;50.852;20.632;2023-03-14T06:29:58;96487.44;;;6.87;61.24
21359;BME280;13506;50.852;20.632;2023-03-14T06:32:27;96476.41;;;7.04;59.70
21359;BME280;13506;50.852;20.632;2023-03-14T06:34:59;96474.38;;;7.27;60.57
21359;BME280;13506;50.852;20.632;2023-03-14T06:37:29;96461.63;;;7.24;59.39
21359;BME280;13506;50.852;20.632;2023-03-14T06:39:58;96474.63;;;7.63;58.72
21359;BME280;13506;50.852;20.632;2023-03-14T06:42:49;96475.72;;;8.18;57.00
21359;BME280;13506;50.852;20.632;2023-03-14T06:45:19;96475.06;;;8.81;54.82
21359;BME280;13506;50.852;20.632;2023-03-14T06:47:47;96474.78;;;9.02;54.61
21359;BME280;13506;50.852;20.632;2023-03-14T06:50:17;96460.69;;;9.30;54.02
21359;BME280;13506;50.852;20.632;2023-03-14T06:52:47;96468.09;;;9.35;52.95
21359;BME280;13506;50.852;20.632;2023-03-14T06:55:20;96462.81;;;9.89;52.25
21359;BME280;13506;50.852;20.632;2023-03-14T06:57:49;96458.66;;;10.30;52.08
21359;BME280;13506;50.852;20.632;2023-03-14T07:00:19;96456.47;;;10.60;51.68
21359;BME280;13506;50.852;20.632;2023-03-14T07:02:47;96460.03;;;10.93;51.30
21359;BME280;13506;50.852;20.632;2023-03-14T07:05:25;96460.81;;;10.86;50.72
21359;BME280;13506;50.852;20.632;2023-03-14T07:07:53;96461.00;;;10.50;50.26
21359;BME280;13506;50.852;20.632;2023-03-14T07:10:21;96461.13;;;10.91;50.30
21359;BME280;13506;50.852;20.632;2023-03-14T07:12:52;96463.50;;;11.10;49.29
21359;BME280;13506;50.852;20.632;2023-03-14T07:15:21;96455.19;;;11.31;49.48
21359;BME280;13506;50.852;20.632;2023-03-14T07:17:56;96457.50;;;11.51;49.29
21359;BME280;13506;50.852;20.632;2023-03-14T07:20:25;96445.84;;;11.21;48.56
21359;BME280;13506;50.852;20.632;2023-03-14T07:22:53;96453.41;;;11.32;48.75
21359;BME280;13506;50.852;20.632;2023-03-14T07:25:33;96454.88;;;11.43;49.10
21359;BME280;13506;50.852;20.632;2023-03-14T07:28:01;96453.06;;;11.27;48.37
21359;BME280;13506;50.852;20.632;2023-03-14T07:30:30;96450.09;;;11.79;47.57
21359;BME280;13506;50.852;20.632;2023-03-14T07:33:00;96445.16;;;11.02;47.77
21359;BME280;13506;50.852;20.632;2023-03-14T07:35:29;96437.22;;;11.53;48.89
21359;BME280;13506;50.852;20.632;2023-03-14T07:37:57;96448.59;;;12.01;47.52
21359;BME280;13506;50.852;20.632;2023-03-14T07:40:32;96453.97;;;12.24;46.24
21359;BME280;13506;50.852;20.632;2023-03-14T07:43:03;96448.88;;;12.70;46.92
21359;BME280;13506;50.852;20.632;2023-03-14T07:45:48;96444.41;;;13.10;45.32
21359;BME280;13506;50.852;20.632;2023-03-14T07:48:16;96444.28;;;13.27;45.17
21359;BME280;13506;50.852;20.632;2023-03-14T07:50:44;96436.66;;;13.63;45.08
21359;BME280;13506;50.852;20.632;2023-03-14T07:53:15;96448.41;;;12.98;44.45
21359;BME280;13506;50.852;20.632;2023-03-14T07:55:43;96438.19;;;13.26;44.43
21359;BME280;13506;50.852;20.632;2023-03-14T07:58:13;96439.00;;;13.73;45.18
21359;BME280;13506;50.852;20.632;2023-03-14T08:00:41;96443.72;;;14.15;43.87
21359;BME280;13506;50.852;20.632;2023-03-14T08:03:09;96430.81;;;14.20;43.29
21359;BME280;13506;50.852;20.632;2023-03-14T08:05:38;96443.19;;;14.35;43.05
21359;BME280;13506;50.852;20.632;2023-03-14T08:08:06;96436.75;;;14.37;42.21
21359;BME280;13506;50.852;20.632;2023-03-14T08:10:34;96447.22;;;14.08;42.89
21359;BME280;13506;50.852;20.632;2023-03-14T08:13:02;96439.44;;;14.14;43.02
21359;BME280;13506;50.852;20.632;2023-03-14T08:15:32;96432.47;;;14.22;43.37
21359;BME280;13506;50.852;20.632;2023-03-14T08:17:59;96453.78;;;14.27;42.88
21359;BME280;13506;50.852;20.632;2023-03-14T08:20:29;96452.75;;;14.28;42.54
21359;BME280;13506;50.852;20.632;2023-03-14T08:22:57;96443.41;;;14.25;42.97
21359;BME280;13506;50.852;20.632;2023-03-14T08:25:26;96442.69;;;14.31;43.33
21359;BME280;13506;50.852;20.632;2023-03-14T08:27:54;96453.63;;;14.43;42.87
21359;BME280;13506;50.852;20.632;2023-03-14T08:30:23;96451.00;;;14.43;43.79
21359;BME280;13506;50.852;20.632;2023-03-14T08:32:53;96440.72;;;14.63;43.46
21359;BME280;13506;50.852;20.632;2023-03-14T08:35:20;96428.84;;;14.52;43.02
21359;BME280;13506;50.852;20.632;2023-03-14T08:37:48;96435.00;;;14.59;43.08
21359;BME280;13506;50.852;20.632;2023-03-14T08:40:16;96452.25;;;14.47;43.46
21359;BME280;13506;50.852;20.632;2023-03-14T08:42:45;96443.63;;;14.68;44.13
21359;BME280;13506;50.852;20.632;2023-03-14T08:45:14;96441.03;;;14.90;43.52
21359;BME280;13506;50.852;20.632;2023-03-14T08:47:43;96439.69;;;15.15;43.30
21359;BME280;13506;50.852;20.632;2023-03-14T08:50:13;96442.00;;;15.25;42.45
21359;BME280;13506;50.852;20.632;2023-03-14T08:52:41;96454.84;;;15.28;42.79
21359;BME280;13506;50.852;20.632;2023-03-14T08:55:09;96454.00;;;15.28;42.62
21359;BME280;13506;50.852;20.632;2023-03-14T08:57:37;96445.78;;;15.37;42.79
21359;BME280;13506;50.852;20.632;2023-03-14T09:00:06;96437.34;;;14.69;43.59
21359;BME280;13506;50.852;20.632;2023-03-14T09:02:37;96429.38;;;14.99;43.68
21359;BME280;13506;50.852;20.632;2023-03-14T09:05:06;96436.78;;;15.10;43.93
21359;BME280;13506;50.852;20.632;2023-03-14T09:07:36;96426.31;;;15.32;44.12
21359;BME280;13506;50.852;20.632;2023-03-14T09:10:05;96433.31;;;15.68;43.43
21359;BME280;13506;50.852;20.632;2023-03-14T09:12:33;96424.09;;;15.85;42.68
21359;BME280;13506;50.852;20.632;2023-03-14T09:15:01;96409.63;;;16.09;44.18
21359;BME280;13506;50.852;20.632;2023-03-14T09:17:29;96406.63;;;16.47;42.43
21359;BME280;13506;50.852;20.632;2023-03-14T09:19:57;96407.53;;;16.68;41.49
21359;BME280;13506;50.852;20.632;2023-03-14T09:22:25;96416.41;;;17.08;41.14
21359;BME280;13506;50.852;20.632;2023-03-14T09:24:54;96420.53;;;17.44;40.63
21359;BME280;13506;50.852;20.632;2023-03-14T09:27:22;96422.34;;;17.77;39.83
21359;BME280;13506;50.852;20.632;2023-03-14T09:29:50;96419.91;;;17.95;39.56
21359;BME280;13506;50.852;20.632;2023-03-14T09:32:18;96401.38;;;18.09;38.79
21359;BME280;13506;50.852;20.632;2023-03-14T09:34:46;96413.91;;;18.40;37.97
21359;BME280;13506;50.852;20.632;2023-03-14T09:37:14;96425.13;;;18.35;37.79
21359;BME280;13506;50.852;20.632;2023-03-14T09:39:43;96413.50;;;18.50;37.46
21359;BME280;13506;50.852;20.632;2023-03-14T09:42:16;96419.50;;;18.70;37.06
21359;BME280;13506;50.852;20.632;2023-03-14T09:44:51;96414.63;;;18.74;35.83
21359;BME280;13506;50.852;20.632;2023-03-14T09:47:21;96406.78;;;18.47;36.38
21359;BME280;13506;50.852;20.632;2023-03-14T09:49:50;96406.81;;;18.27;36.71
21359;BME280;13506;50.852;20.632;2023-03-14T09:52:23;96423.59;;;18.01;37.35
21359;BME280;13506;50.852;20.632;2023-03-14T09:54:53;96428.25;;;17.79;37.72
21359;BME280;13506;50.852;20.632;2023-03-14T09:57:25;96428.25;;;17.52;38.24
21359;BME280;13506;50.852;20.632;2023-03-14T09:59:57;96437.19;;;17.38;39.03
21359;BME280;13506;50.852;20.632;2023-03-14T10:02:35;96417.38;;;17.07;39.12
21359;BME280;13506;50.852;20.632;2023-03-14T10:05:13;96427.09;;;16.87;39.79
21359;BME280;13506;50.852;20.632;2023-03-14T10:07:41;96423.84;;;16.98;39.65
21359;BME280;13506;50.852;20.632;2023-03-14T10:10:11;96426.31;;;16.99;39.24
21359;BME280;13506;50.852;20.632;2023-03-14T10:12:46;96422.03;;;16.98;38.83
21359;BME280;13506;50.852;20.632;2023-03-14T10:15:27;96424.00;;;16.83;39.07
21359;BME280;13506;50.852;20.632;2023-03-14T10:17:59;96430.31;;;16.82;39.25
21359;BME280;13506;50.852;20.632;2023-03-14T10:20:30;96430.28;;;16.75;38.84
21359;BME280;13506;50.852;20.632;2023-03-14T10:23:03;96428.66;;;16.74;39.52
21359;BME280;13506;50.852;20.632;2023-03-14T10:25:33;96428.94;;;16.45;39.51
21359;BME280;13506;50.852;20.632;2023-03-14T10:28:04;96416.38;;;16.53;39.94
21359;BME280;13506;50.852;20.632;2023-03-14T10:30:39;96438.28;;;16.47;39.57
21359;BME280;13506;50.852;20.632;2023-03-14T10:33:15;96431.28;;;16.26;40.32
21359;BME280;13506;50.852;20.632;2023-03-14T10:35:52;96426.59;;;15.93;40.70
21359;BME280;13506;50.852;20.632;2023-03-14T10:38:23;96449.78;;;15.55;41.63
21359;BME280;13506;50.852;20.632;2023-03-14T10:40:54;96425.50;;;15.16;42.66
21359;BME280;13506;50.852;20.632;2023-03-14T10:43:26;96430.84;;;14.87;43.17
21359;BME280;13506;50.852;20.632;2023-03-14T10:45:57;96415.38;;;14.77;44.42
21359;BME280;13506;50.852;20.632;2023-03-14T10:48:30;96416.91;;;14.71;44.58
21359;BME280;13506;50.852;20.632;2023-03-14T10:51:05;96426.81;;;14.69;44.88
21359;BME280;13506;50.852;20.632;2023-03-14T10:53:41;96418.38;;;14.59;45.13
21359;BME280;13506;50.852;20.632;2023-03-14T10:56:13;96420.19;;;14.73;45.47
21359;BME280;13506;50.852;20.632;2023-03-14T10:58:44;96435.59;;;14.76;45.38
21359;BME280;13506;50.852;20.632;2023-03-14T11:01:28;96432.63;;;14.65;45.38
21359;BME280;13506;50.852;20.632;2023-03-14T11:04:05;96422.94;;;14.50;45.97
21359;BME280;13506;50.852;20.632;2023-03-14T11:06:42;96430.38;;;14.47;45.89
21359;BME280;13506;50.852;20.632;2023-03-14T11:09:17;96466.78;;;14.43;46.82
21359;BME280;13506;50.852;20.632;2023-03-14T11:11:47;96428.69;;;14.39;45.47
21359;BME280;13506;50.852;20.632;2023-03-14T11:14:24;96446.34;;;14.30;46.10
21359;BME280;13506;50.852;20.632;2023-03-14T11:17:01;96426.38;;;14.21;46.47
21359;BME280;13506;50.852;20.632;2023-03-14T11:19:44;96451.41;;;14.17;46.55
21359;BME280;13506;50.852;20.632;2023-03-14T11:22:21;96446.66;;;13.97;46.23
21359;BME280;13506;50.852;20.632;2023-03-14T11:25:21;96428.97;;;13.76;47.29
21359;BME280;13506;50.852;20.632;2023-03-14T11:28:04;96426.59;;;13.67;47.12
21359;BME280;13506;50.852;20.632;2023-03-14T11:30:43;96430.13;;;13.59;47.81
21359;BME280;13506;50.852;20.632;2023-03-14T11:33:18;96416.22;;;13.50;47.60
21359;BME280;13506;50.852;20.632;2023-03-14T11:35:51;96422.13;;;13.52;48.46
21359;BME280;13506;50.852;20.632;2023-03-14T11:38:28;96417.69;;;13.53;48.41
21359;BME280;13506;50.852;20.632;2023-03-14T11:40:58;96447.06;;;13.56;48.20
21359;BME280;13506;50.852;20.632;2023-03-14T11:43:29;96417.69;;;13.53;48.42
21359;BME280;13506;50.852;20.632;2023-03-14T11:46:05;96419.84;;;13.49;48.61
21359;BME280;13506;50.852;20.632;2023-03-14T11:48:41;96432.00;;;13.50;48.47
21359;BME280;13506;50.852;20.632;2023-03-14T11:51:16;96419.91;;;13.41;48.85
21359;BME280;13506;50.852;20.632;2023-03-14T11:53:55;96414.09;;;13.31;48.95
21359;BME280;13506;50.852;20.632;2023-03-14T11:56:32;96425.25;;;13.33;48.86
21359;BME280;13506;50.852;20.632;2023-03-14T11:59:05;96424.44;;;13.24;48.98
21359;BME280;13506;50.852;20.632;2023-03-14T12:01:52;96421.06;;;13.15;49.58
21359;BME280;13506;50.852;20.632;2023-03-14T12:04:46;96410.97;;;13.04;49.86
21359;BME280;13506;50.852;20.632;2023-03-14T12:07:20;96413.63;;;12.96;49.70
21359;BME280;13506;50.852;20.632;2023-03-14T12:09:51;96404.19;;;12.87;50.26
21359;BME280;13506;50.852;20.632;2023-03-14T12:12:23;96418.34;;;12.77;50.12
21359;BME280;13506;50.852;20.632;2023-03-14T12:14:55;96410.53;;;12.69;51.12
21359;BME280;13506;50.852;20.632;2023-03-14T12:17:34;96407.59;;;12.64;51.14
21359;BME280;13506;50.852;20.632;2023-03-14T12:20:12;96395.69;;;12.53;51.63
21359;BME280;13506;50.852;20.632;2023-03-14T12:22:44;96395.56;;;12.47;52.04
21359;BME280;13506;50.852;20.632;2023-03-14T12:25:19;96385.22;;;12.45;51.87
21359;BME280;13506;50.852;20.632;2023-03-14T12:28:02;96393.91;;;12.46;52.30
21359;BME280;13506;50.852;20.632;2023-03-14T12:30:33;96395.75;;;12.37;53.01
21359;BME280;13506;50.852;20.632;2023-03-14T12:33:33;96418.38;;;12.38;53.02
21359;BME280;13506;50.852;20.632;2023-03-14T12:36:19;96410.38;;;12.31;52.97
21359;BME280;13506;50.852;20.632;2023-03-14T12:39:14;96417.59;;;12.29;53.40
21359;BME280;13506;50.852;20.632;2023-03-14T12:41:53;96408.59;;;12.24;54.10
21359;BME280;13506;50.852;20.632;2023-03-14T12:44:45;96423.50;;;12.23;54.06
21359;BME280;13506;50.852;20.632;2023-03-14T12:50:35;96404.63;;;12.20;54.61
21359;BME280;13506;50.852;20.632;2023-03-14T12:53:33;96408.44;;;12.17;54.62
21359;BME280;13506;50.852;20.632;2023-03-14T12:56:11;96404.34;;;12.14;54.71
21359;BME280;13506;50.852;20.632;2023-03-14T12:58:54;96408.09;;;12.12;55.16
21359;BME280;13506;50.852;20.632;2023-03-14T13:01:23;96404.00;;;12.09;55.35
21359;BME280;13506;50.852;20.632;2023-03-14T13:03:53;96408.94;;;12.12;55.29
21359;BME280;13506;50.852;20.632;2023-03-14T13:06:51;96410.91;;;12.10;55.20
21359;BME280;13506;50.852;20.632;2023-03-14T13:12:28;96406.81;;;12.08;55.62
21359;BME280;13506;50.852;20.632;2023-03-14T13:15:00;96407.16;;;12.05;55.83
21359;BME280;13506;50.852;20.632;2023-03-14T13:17:32;96398.97;;;12.00;56.82
21359;BME280;13506;50.852;20.632;2023-03-14T13:20:05;96408.16;;;11.95;56.68
21359;BME280;13506;50.852;20.632;2023-03-14T13:22:39;96389.16;;;11.93;57.01
21359;BME280;13506;50.852;20.632;2023-03-14T13:25:12;96381.16;;;11.87;57.57
21359;BME280;13506;50.852;20.632;2023-03-14T13:27:41;96378.06;;;11.83;57.57
21359;BME280;13506;50.852;20.632;2023-03-14T13:30:22;96414.41;;;11.78;58.19
21359;BME280;13506;50.852;20.632;2023-03-14T13:32:52;96405.28;;;11.74;58.29